createdAt,value
2018-07-02T00:00:38.997Z,47.20
2018-07-02T00:01:38.920Z,47.01
2018-07-02T00:02:38.873Z,46.91
2018-07-02T00:03:38.860Z,47.01
2018-07-02T00:04:38.779Z,47.30
2018-07-02T00:05:38.733Z,47.30
2018-07-02T00:06:38.686Z,47.30
2018-07-02T00:07:38.674Z,47.39
2018-07-02T00:08:38.593Z,47.39
2018-07-02T00:09:38.548Z,47.58
2018-07-02T00:10:38.499Z,47.39
2018-07-02T00:11:38.453Z,47.30
2018-07-02T00:12:38.437Z,47.20
2018-07-02T00:13:38.359Z,47.20
2018-07-02T00:14:38.313Z,47.39
2018-07-02T00:15:38.268Z,47.30
2018-07-02T00:16:38.220Z,47.39
2018-07-02T00:17:38.209Z,47.49
2018-07-02T00:18:38.125Z,47.39
2018-07-02T00:19:38.113Z,47.68
2018-07-02T00:20:38.035Z,47.68
2018-07-02T00:21:37.983Z,47.58
2018-07-02T00:22:37.986Z,47.68
2018-07-02T00:23:37.890Z,47.78
2018-07-02T00:24:37.846Z,47.78
2018-07-02T00:25:37.800Z,48.07
2018-07-02T00:26:37.750Z,47.78
2018-07-02T00:27:37.741Z,47.78
2018-07-02T00:28:37.656Z,47.75
2018-07-02T00:29:37.611Z,47.58
2018-07-02T00:30:37.595Z,47.78
2018-07-02T00:31:37.518Z,47.87
2018-07-02T00:32:37.474Z,47.75
2018-07-02T00:33:37.424Z,47.78
2018-07-02T00:34:37.375Z,47.78
2018-07-02T00:35:37.368Z,47.97
2018-07-02T00:36:37.282Z,47.97
2018-07-02T00:37:37.235Z,48.04
2018-07-02T00:38:37.190Z,48.07
2018-07-02T00:39:37.141Z,47.58
2018-07-02T00:40:37.126Z,47.56
2018-07-02T00:41:37.055Z,47.58
2018-07-02T00:42:37.050Z,48.04
2018-07-02T00:43:36.958Z,47.94
2018-07-02T00:44:36.911Z,48.13
2018-07-02T00:45:36.892Z,48.13
2018-07-02T00:46:36.846Z,48.04
2018-07-02T00:47:36.766Z,48.04
2018-07-02T00:48:36.719Z,48.13
2018-07-02T00:49:36.671Z,48.42
2018-07-02T00:50:36.658Z,48.13
2018-07-02T00:51:36.612Z,48.33
2018-07-02T00:52:36.566Z,47.94
2018-07-02T00:53:36.487Z,48.04
2018-07-02T00:54:36.437Z,47.94
2018-07-02T00:55:36.391Z,48.23
2018-07-02T00:56:36.344Z,48.13
2018-07-02T00:57:36.328Z,48.13
2018-07-02T00:58:36.250Z,48.23
2018-07-02T00:59:36.213Z,48.33
2018-07-02T01:00:36.160Z,47.94
2018-07-02T01:01:36.110Z,48.04
2018-07-02T01:02:36.094Z,48.04
2018-07-02T01:03:36.016Z,48.13
2018-07-02T01:04:35.967Z,47.94
2018-07-02T01:05:35.921Z,48.13
2018-07-02T01:06:35.877Z,47.85
2018-07-02T01:07:35.864Z,47.85
2018-07-02T01:08:35.788Z,47.94
2018-07-02T01:09:35.736Z,47.85
2018-07-02T01:10:35.689Z,48.04
2018-07-02T01:11:35.640Z,48.23
2018-07-02T01:12:35.627Z,47.85
2018-07-02T01:13:35.582Z,48.13
2018-07-02T01:14:35.501Z,48.13
2018-07-02T01:15:35.456Z,48.04
2018-07-02T01:16:35.405Z,47.94
2018-07-02T01:17:35.391Z,47.85
2018-07-02T01:18:35.343Z,47.75
2018-07-02T01:19:35.308Z,48.13
2018-07-02T01:20:35.215Z,48.23
2018-07-02T01:21:35.166Z,48.13
2018-07-02T01:22:35.127Z,48.23
2018-07-02T01:23:35.076Z,48.13
2018-07-02T01:24:35.051Z,47.94
2018-07-02T01:25:35.012Z,48.23
2018-07-02T01:26:34.933Z,47.85
2018-07-02T01:27:34.886Z,47.94
2018-07-02T01:28:34.840Z,47.94
2018-07-02T01:29:34.792Z,47.56
2018-07-02T01:30:34.777Z,48.04
2018-07-02T01:31:34.698Z,47.85
2018-07-02T01:32:34.680Z,47.94
2018-07-02T01:33:34.601Z,48.13
2018-07-02T01:34:34.557Z,47.94
2018-07-02T01:35:34.533Z,47.94
2018-07-02T01:36:34.467Z,48.13
2018-07-02T01:37:34.443Z,48.04
2018-07-02T01:38:34.366Z,48.13
2018-07-02T01:39:35.421Z,48.23
2018-07-02T01:40:34.325Z,47.94
2018-07-02T01:41:34.224Z,47.94
2018-07-02T01:42:34.178Z,47.85
2018-07-02T01:43:34.132Z,47.94
2018-07-02T01:44:34.082Z,47.94
2018-07-02T01:45:34.073Z,47.85
2018-07-02T01:46:33.998Z,47.94
2018-07-02T01:47:33.944Z,47.66
2018-07-02T01:48:33.903Z,48.04
2018-07-02T01:49:33.850Z,47.94
2018-07-02T01:50:33.832Z,48.13
2018-07-02T01:51:33.755Z,48.04
2018-07-02T01:52:33.705Z,48.04
2018-07-02T01:53:33.657Z,48.04
2018-07-02T01:54:33.611Z,48.13
2018-07-02T01:55:33.598Z,48.13
2018-07-02T01:56:33.548Z,48.23
2018-07-02T01:57:33.468Z,48.52
2018-07-02T01:58:33.426Z,48.23
2018-07-02T01:59:33.375Z,48.52
2018-07-02T02:00:33.329Z,48.42
2018-07-02T02:01:33.317Z,48.21
2018-07-02T02:02:33.275Z,48.33
2018-07-02T02:03:33.188Z,48.33
2018-07-02T02:04:33.139Z,48.52
2018-07-02T02:05:33.091Z,48.52
2018-07-02T02:06:33.045Z,48.39
2018-07-02T02:07:33.031Z,48.39
2018-07-02T02:08:32.985Z,48.61
2018-07-02T02:09:32.901Z,48.33
2018-07-02T02:10:32.856Z,48.23
2018-07-02T02:11:32.812Z,48.33
2018-07-02T02:12:32.761Z,48.52
2018-07-02T02:13:32.758Z,48.04
2018-07-02T02:14:32.666Z,48.04
2018-07-02T02:15:32.619Z,48.23
2018-07-02T02:16:32.570Z,48.04
2018-07-02T02:17:32.524Z,48.23
2018-07-02T02:18:32.510Z,47.94
2018-07-02T02:19:32.431Z,48.23
2018-07-02T02:20:32.384Z,48.04
2018-07-02T02:21:32.343Z,48.13
2018-07-02T02:22:32.287Z,48.04
2018-07-02T02:23:32.276Z,48.13
2018-07-02T02:24:32.194Z,47.94
2018-07-02T02:25:32.178Z,48.04
2018-07-02T02:26:32.102Z,47.94
2018-07-02T02:27:32.052Z,48.42
2018-07-02T02:28:32.037Z,48.02
2018-07-02T02:29:31.957Z,47.92
2018-07-02T02:30:31.907Z,48.04
2018-07-02T02:31:31.866Z,48.13
2018-07-02T02:32:31.815Z,47.85
2018-07-02T02:33:31.806Z,47.94
2018-07-02T02:34:31.720Z,47.94
2018-07-02T02:35:31.672Z,48.02
2018-07-02T02:36:31.623Z,47.92
2018-07-02T02:37:31.580Z,48.39
2018-07-02T02:38:31.574Z,48.30
2018-07-02T02:39:31.487Z,48.68
2018-07-02T02:40:31.433Z,48.21
2018-07-02T02:41:31.389Z,48.30
2018-07-02T02:42:31.340Z,48.30
2018-07-02T02:43:31.386Z,48.97
2018-07-02T02:44:31.246Z,48.11
2018-07-02T02:45:31.201Z,48.39
2018-07-02T02:46:31.150Z,48.21
2018-07-02T02:47:31.136Z,48.21
2018-07-02T02:48:31.059Z,48.21
2018-07-02T02:49:31.051Z,48.21
2018-07-02T02:50:30.965Z,48.11
2018-07-02T02:51:30.910Z,48.39
2018-07-02T02:52:30.866Z,48.59
2018-07-02T02:53:30.820Z,49.07
2018-07-02T02:54:30.809Z,48.97
2018-07-02T02:55:30.722Z,48.78
2018-07-02T02:56:30.675Z,48.68
2018-07-02T02:57:30.630Z,48.97
2018-07-02T02:58:30.590Z,48.88
2018-07-02T02:59:30.565Z,48.78
2018-07-02T03:00:30.483Z,48.68
2018-07-02T03:01:30.438Z,48.97
2018-07-02T03:02:30.422Z,48.97
2018-07-02T03:03:30.344Z,48.78
2018-07-02T03:04:30.298Z,48.97
2018-07-02T03:05:30.247Z,48.97
2018-07-02T03:06:30.201Z,49.26
2018-07-02T03:07:30.188Z,49.16
2018-07-02T03:08:30.134Z,49.74
2018-07-02T03:09:30.056Z,49.45
2018-07-02T03:10:30.009Z,49.64
2018-07-02T03:11:29.963Z,49.64
2018-07-02T03:12:29.915Z,49.64
2018-07-02T03:13:29.900Z,49.90
2018-07-02T03:14:29.819Z,50.02
2018-07-02T03:15:29.773Z,49.71
2018-07-02T03:16:29.723Z,49.93
2018-07-02T03:17:29.675Z,49.80
2018-07-02T03:18:29.661Z,49.80
2018-07-02T03:19:29.584Z,49.80
2018-07-02T03:20:29.622Z,50.00
2018-07-02T03:21:29.489Z,49.93
2018-07-02T03:22:29.438Z,50.02
2018-07-02T03:23:29.425Z,49.93
2018-07-02T03:24:29.344Z,49.80
2018-07-02T03:25:29.294Z,49.90
2018-07-02T03:26:29.264Z,49.93
2018-07-02T03:27:29.201Z,49.90
2018-07-02T03:28:29.185Z,49.74
2018-07-02T03:29:29.146Z,49.93
2018-07-02T03:30:29.059Z,49.93
2018-07-02T03:31:29.025Z,50.12
2018-07-02T03:32:28.970Z,50.12
2018-07-02T03:33:28.915Z,50.12
2018-07-02T03:34:28.909Z,50.12
2018-07-02T03:35:28.818Z,49.74
2018-07-02T03:36:28.773Z,49.93
2018-07-02T03:37:28.722Z,49.80
2018-07-02T03:38:28.680Z,49.84
2018-07-02T03:39:28.659Z,50.00
2018-07-02T03:40:28.579Z,49.64
2018-07-02T03:41:28.567Z,49.16
2018-07-02T03:42:28.489Z,49.93
2018-07-02T03:43:28.447Z,50.41
2018-07-02T03:44:28.395Z,49.45
2018-07-02T03:45:28.394Z,49.84
2018-07-02T03:46:28.296Z,50.19
2018-07-02T03:47:28.248Z,50.98
2018-07-02T03:48:28.200Z,50.12
2018-07-02T03:49:28.152Z,49.80
2018-07-02T03:50:28.138Z,49.90
2018-07-02T03:51:28.060Z,49.35
2018-07-02T03:52:28.043Z,50.09
2018-07-02T03:53:27.962Z,49.35
2018-07-02T03:54:27.917Z,50.00
2018-07-02T03:55:27.871Z,49.93
2018-07-02T03:56:27.823Z,49.64
2018-07-02T03:57:27.819Z,49.84
2018-07-02T03:58:27.724Z,50.21
2018-07-02T03:59:27.679Z,49.93
2018-07-02T04:00:27.635Z,50.57
2018-07-02T04:01:27.583Z,51.15
2018-07-02T04:02:27.579Z,50.79
2018-07-02T04:03:27.488Z,51.15
2018-07-02T04:04:27.440Z,50.19
2018-07-02T04:05:27.393Z,50.57
2018-07-02T04:06:27.346Z,51.34
2018-07-02T04:07:27.332Z,51.62
2018-07-02T04:08:27.249Z,51.53
2018-07-02T04:09:27.207Z,51.91
2018-07-02T04:10:27.163Z,52.39
2018-07-02T04:11:27.109Z,52.29
2018-07-02T04:12:27.106Z,53.25
2018-07-02T04:13:27.046Z,52.67
2018-07-02T04:14:26.965Z,52.96
2018-07-02T04:15:26.918Z,52.96
2018-07-02T04:16:26.869Z,53.63
2018-07-02T04:17:26.854Z,52.87
2018-07-02T04:18:26.804Z,53.16
2018-07-02T04:19:26.728Z,53.51
2018-07-02T04:20:26.681Z,53.89
2018-07-02T04:21:26.631Z,53.92
2018-07-02T04:22:26.584Z,54.11
2018-07-02T04:23:26.571Z,54.47
2018-07-02T04:24:26.495Z,53.99
2018-07-02T04:25:26.445Z,54.30
2018-07-02T04:26:26.395Z,53.73
2018-07-02T04:27:26.348Z,54.30
2018-07-02T04:28:26.335Z,54.59
2018-07-02T04:29:26.253Z,54.30
2018-07-02T04:30:26.209Z,54.39
2018-07-02T04:31:26.160Z,53.82
2018-07-02T04:32:26.112Z,54.59
2018-07-02T04:33:26.105Z,54.97
2018-07-02T04:34:26.021Z,55.04
2018-07-02T04:35:25.971Z,55.35
2018-07-02T04:36:25.924Z,55.16
2018-07-02T04:37:25.875Z,55.16
2018-07-02T04:38:25.858Z,55.42
2018-07-02T04:39:25.785Z,55.45
2018-07-02T04:40:25.771Z,55.35
2018-07-02T04:41:25.685Z,55.23
2018-07-02T04:42:25.650Z,55.04
2018-07-02T04:43:25.593Z,55.61
2018-07-02T04:44:25.574Z,55.13
2018-07-02T04:45:25.499Z,55.52
2018-07-02T04:46:25.454Z,55.04
2018-07-02T04:47:26.103Z,54.94
2018-07-02T04:48:25.357Z,55.52
2018-07-02T04:49:25.338Z,55.52
2018-07-02T04:50:25.260Z,56.57
2018-07-02T04:51:25.212Z,56.28
2018-07-02T04:52:25.164Z,56.95
2018-07-02T04:53:25.165Z,56.76
2018-07-02T04:54:25.070Z,56.76
2018-07-02T04:55:25.023Z,57.24
2018-07-02T04:56:24.977Z,57.33
2018-07-02T04:57:24.925Z,57.04
2018-07-02T04:58:24.924Z,57.24
2018-07-02T04:59:24.832Z,57.43
2018-07-02T05:00:24.788Z,57.43
2018-07-02T05:01:24.740Z,57.81
2018-07-02T05:02:24.691Z,57.71
2018-07-02T05:03:24.678Z,57.43
2018-07-02T05:04:24.597Z,57.04
2018-07-02T05:05:24.595Z,57.24
2018-07-02T05:06:24.499Z,57.24
2018-07-02T05:07:24.455Z,57.14
2018-07-02T05:08:24.403Z,57.33
2018-07-02T05:09:24.360Z,57.24
2018-07-02T05:10:24.350Z,57.33
2018-07-02T05:11:24.265Z,57.33
2018-07-02T05:12:24.216Z,57.14
2018-07-02T05:13:24.171Z,57.14
2018-07-02T05:14:24.122Z,57.33
2018-07-02T05:15:24.107Z,57.14
2018-07-02T05:16:24.027Z,57.24
2018-07-02T05:17:23.981Z,56.76
2018-07-02T05:18:23.965Z,56.85
2018-07-02T05:19:23.887Z,57.14
2018-07-02T05:20:23.839Z,57.36
2018-07-02T05:21:23.793Z,57.26
2018-07-02T05:22:23.774Z,57.17
2018-07-02T05:23:23.694Z,57.46
2018-07-02T05:24:23.666Z,57.26
2018-07-02T05:25:23.600Z,57.65
2018-07-02T05:26:23.589Z,57.84
2018-07-02T05:27:23.509Z,58.03
2018-07-02T05:28:23.460Z,57.75
2018-07-02T05:29:23.442Z,57.65
2018-07-02T05:30:23.367Z,57.84
2018-07-02T05:31:23.326Z,57.26
2018-07-02T05:32:23.270Z,57.17
2018-07-02T05:33:23.254Z,56.88
2018-07-02T05:34:23.176Z,56.60
2018-07-02T05:35:23.159Z,56.79
2018-07-02T05:36:23.081Z,56.88
2018-07-02T05:37:23.030Z,57.36
2018-07-02T05:38:22.987Z,56.88
2018-07-02T05:39:22.944Z,56.88
2018-07-02T05:40:22.926Z,57.26
2018-07-02T05:41:22.846Z,57.46
2018-07-02T05:42:22.800Z,57.46
2018-07-02T05:43:22.781Z,57.46
2018-07-02T05:44:22.733Z,57.26
2018-07-02T05:45:22.655Z,57.26
2018-07-02T05:46:22.610Z,57.65
2018-07-02T05:47:22.563Z,58.32
2018-07-02T05:48:22.555Z,57.93
2018-07-02T05:49:22.470Z,58.61
2018-07-02T05:50:22.419Z,58.41
2018-07-02T05:51:22.373Z,57.65
2018-07-02T05:52:22.325Z,58.32
2018-07-02T05:53:22.308Z,58.51
2018-07-02T05:54:22.232Z,56.79
2018-07-02T05:55:22.185Z,57.46
2018-07-02T05:56:22.170Z,53.94
2018-07-02T05:57:22.090Z,52.89
2018-07-02T05:58:22.041Z,53.75
2018-07-02T05:59:22.000Z,53.56
2018-07-02T06:00:22.062Z,52.89
2018-07-02T06:01:21.929Z,52.92
2018-07-02T06:02:21.854Z,53.59
2018-07-02T06:03:21.807Z,53.02
2018-07-02T06:04:21.760Z,51.97
2018-07-02T06:05:21.744Z,51.68
2018-07-02T06:06:21.664Z,51.77
2018-07-02T06:07:21.624Z,52.92
2018-07-02T06:08:21.776Z,53.11
2018-07-02T06:09:21.526Z,52.95
2018-07-02T06:10:21.517Z,53.20
2018-07-02T06:11:21.432Z,53.49
2018-07-02T06:12:21.387Z,51.32
2018-07-02T06:13:21.335Z,49.98
2018-07-02T06:14:21.289Z,50.36
2018-07-02T06:15:21.293Z,51.42
2018-07-02T06:16:21.204Z,51.03
2018-07-02T06:17:21.149Z,49.60
2018-07-02T06:18:21.102Z,49.33
2018-07-02T06:19:21.056Z,48.75
2018-07-02T06:20:21.051Z,48.28
2018-07-02T06:21:20.962Z,48.28
2018-07-02T06:22:20.919Z,48.28
2018-07-02T06:23:20.869Z,48.28
2018-07-02T06:24:20.819Z,48.18
2018-07-02T06:25:20.836Z,48.47
2018-07-02T06:26:20.731Z,48.28
2018-07-02T06:27:20.685Z,47.99
2018-07-02T06:28:20.633Z,48.18
2018-07-02T06:29:20.589Z,48.18
2018-07-02T06:30:20.599Z,48.21
2018-07-02T06:31:20.493Z,47.53
2018-07-02T06:32:20.445Z,47.06
2018-07-02T06:33:20.402Z,47.15
2018-07-02T06:34:20.354Z,46.96
2018-07-02T06:35:20.346Z,46.39
2018-07-02T06:36:20.259Z,46.29
2018-07-02T06:37:20.216Z,46.48
2018-07-02T06:38:20.173Z,46.67
2018-07-02T06:39:20.124Z,46.19
2018-07-02T06:40:20.112Z,46.29
2018-07-02T06:41:20.031Z,46.58
2018-07-02T06:42:20.029Z,46.86
2018-07-02T06:43:19.939Z,46.48
2018-07-02T06:44:19.889Z,46.48
2018-07-02T06:45:19.842Z,45.93
2018-07-02T06:46:19.799Z,45.72
2018-07-02T06:47:19.794Z,45.45
2018-07-02T06:48:19.706Z,46.31
2018-07-02T06:49:19.661Z,45.74
2018-07-02T06:50:19.613Z,45.93
2018-07-02T06:51:19.575Z,45.64
2018-07-02T06:52:19.552Z,45.93
2018-07-02T06:53:19.522Z,45.64
2018-07-02T06:54:19.429Z,44.68
2018-07-02T06:55:19.382Z,44.59
2018-07-02T06:56:19.334Z,44.30
2018-07-02T06:57:19.289Z,44.68
2018-07-02T06:58:19.283Z,45.26
2018-07-02T06:59:19.197Z,44.87
2018-07-02T07:00:19.150Z,44.68
2018-07-02T07:01:19.113Z,45.45
2018-07-02T07:02:19.059Z,44.59
2018-07-02T07:03:19.046Z,44.68
2018-07-02T07:04:18.963Z,44.70
2018-07-02T07:05:18.918Z,44.23
2018-07-02T07:06:18.909Z,43.74
2018-07-02T07:07:18.829Z,44.20
2018-07-02T07:08:18.784Z,43.74
2018-07-02T07:09:18.739Z,43.74
2018-07-02T07:10:18.722Z,43.65
2018-07-02T07:11:18.645Z,43.55
2018-07-02T07:12:18.598Z,43.55
2018-07-02T07:13:18.589Z,42.98
2018-07-02T07:14:18.513Z,42.69
2018-07-02T07:15:18.462Z,43.27
2018-07-02T07:16:18.461Z,43.36
2018-07-02T07:17:18.376Z,43.65
2018-07-02T07:18:18.323Z,43.65
2018-07-02T07:19:18.279Z,43.55
2018-07-02T07:20:18.232Z,44.03
2018-07-02T07:21:18.210Z,44.23
2018-07-02T07:22:18.140Z,43.46
2018-07-02T07:23:18.093Z,43.17
2018-07-02T07:24:18.081Z,43.84
2018-07-02T07:25:18.007Z,43.84
2018-07-02T07:26:17.957Z,43.36
2018-07-02T07:27:17.908Z,43.74
2018-07-02T07:28:17.901Z,44.06
2018-07-02T07:29:17.826Z,44.34
2018-07-02T07:30:17.782Z,44.15
2018-07-02T07:31:17.761Z,43.67
2018-07-02T07:32:17.680Z,44.15
2018-07-02T07:33:17.637Z,43.67
2018-07-02T07:34:17.594Z,43.48
2018-07-02T07:35:17.579Z,43.77
2018-07-02T07:36:17.497Z,43.67
2018-07-02T07:37:17.494Z,43.10
2018-07-02T07:38:17.409Z,43.19
2018-07-02T07:39:17.364Z,43.77
2018-07-02T07:40:17.355Z,43.79
2018-07-02T07:41:17.272Z,43.67
2018-07-02T07:42:17.260Z,42.64
2018-07-02T07:43:17.191Z,42.43
2018-07-02T07:44:17.134Z,42.81
2018-07-02T07:45:17.093Z,42.73
2018-07-02T07:46:17.079Z,43.02
2018-07-02T07:47:16.998Z,41.56
2018-07-02T07:48:16.956Z,42.16
2018-07-02T07:49:16.911Z,43.21
2018-07-02T07:50:16.868Z,43.02
2018-07-02T07:51:16.846Z,43.12
2018-07-02T07:52:16.778Z,43.12
2018-07-02T07:53:16.826Z,43.12
2018-07-02T07:54:16.684Z,42.25
2018-07-02T07:55:16.639Z,40.62
2018-07-02T07:56:16.597Z,40.81
2018-07-02T07:57:16.549Z,40.91
2018-07-02T07:58:16.534Z,40.52
2018-07-02T07:59:16.460Z,41.10
2018-07-02T08:00:16.412Z,41.41
2018-07-02T08:01:16.399Z,42.08
2018-07-02T08:02:16.323Z,41.60
2018-07-02T08:03:16.311Z,41.12
2018-07-02T08:04:16.278Z,41.22
2018-07-02T08:05:16.247Z,41.22
2018-07-02T08:06:16.144Z,40.83
2018-07-02T08:07:16.106Z,40.73
2018-07-02T08:08:16.057Z,40.93
2018-07-02T08:09:16.045Z,40.64
2018-07-02T08:10:15.968Z,40.25
2018-07-02T08:11:15.926Z,39.49
2018-07-02T08:12:15.875Z,38.62
2018-07-02T08:13:15.863Z,39.20
2018-07-02T08:14:15.787Z,39.89
2018-07-02T08:15:15.743Z,40.18
2018-07-02T08:16:15.698Z,39.99
2018-07-02T08:17:15.655Z,39.70
2018-07-02T08:18:15.646Z,38.74
2018-07-02T08:19:15.607Z,38.64
2018-07-02T08:20:15.521Z,39.12
2018-07-02T08:21:15.508Z,39.31
2018-07-02T08:22:15.433Z,39.33
2018-07-02T08:23:15.393Z,39.14
2018-07-02T08:24:15.343Z,38.37
2018-07-02T08:25:15.303Z,38.28
2018-07-02T08:26:15.291Z,38.47
2018-07-02T08:27:15.326Z,38.85
2018-07-02T08:28:15.164Z,39.26
2018-07-02T08:29:15.121Z,38.39
2018-07-02T08:30:15.084Z,37.52
2018-07-02T08:31:15.073Z,37.22
2018-07-02T08:32:14.991Z,37.79
2018-07-02T08:33:14.951Z,38.97
2018-07-02T08:34:14.943Z,38.97
2018-07-02T08:35:14.864Z,38.59
2018-07-02T08:36:14.818Z,38.41
2018-07-02T08:37:14.775Z,36.97
2018-07-02T08:38:14.729Z,36.68
2018-07-02T08:39:14.715Z,35.42
2018-07-02T08:40:14.640Z,35.33
2018-07-02T08:41:14.598Z,35.12
2018-07-02T08:42:14.556Z,35.71
2018-07-02T08:43:14.523Z,36.58
2018-07-02T08:44:14.519Z,37.37
2018-07-02T08:45:14.423Z,36.89
2018-07-02T08:46:14.383Z,35.93
2018-07-02T08:47:14.337Z,35.46
2018-07-02T08:48:14.290Z,34.38
2018-07-02T08:49:14.281Z,34.27
2018-07-02T08:50:14.207Z,34.46
2018-07-02T08:51:14.165Z,34.84
2018-07-02T08:52:14.121Z,35.54
2018-07-02T08:53:14.109Z,35.64
2018-07-02T08:54:14.039Z,35.17
2018-07-02T08:55:13.993Z,34.50
2018-07-02T08:56:13.991Z,34.32
2018-07-02T08:57:13.910Z,34.05
2018-07-02T08:58:13.883Z,34.24
2018-07-02T08:59:13.821Z,33.87
2018-07-02T09:00:13.777Z,33.31
2018-07-02T09:01:13.764Z,32.06
2018-07-02T09:02:13.726Z,31.48
2018-07-02T09:03:13.649Z,31.48
2018-07-02T09:04:13.607Z,32.64
2018-07-02T09:05:13.562Z,32.34
2018-07-02T09:06:13.523Z,32.15
2018-07-02T09:07:13.520Z,32.82
2018-07-02T09:08:13.444Z,32.65
2018-07-02T09:09:13.397Z,31.51
2018-07-02T09:10:13.356Z,31.41
2018-07-02T09:11:13.312Z,31.60
2018-07-02T09:12:13.304Z,29.36
2018-07-02T09:13:13.271Z,29.25
2018-07-02T09:14:13.187Z,29.82
2018-07-02T09:15:13.149Z,30.21
2018-07-02T09:16:13.104Z,30.21
2018-07-02T09:17:13.064Z,30.98
2018-07-02T09:18:13.052Z,31.27
2018-07-02T09:19:12.980Z,30.51
2018-07-02T09:20:12.943Z,31.18
2018-07-02T09:21:12.895Z,32.07
2018-07-02T09:22:12.857Z,32.18
2018-07-02T09:23:12.846Z,31.22
2018-07-02T09:24:12.809Z,30.35
2018-07-02T09:25:12.754Z,32.29
2018-07-02T09:26:12.738Z,30.27
2018-07-02T09:27:12.649Z,30.94
2018-07-02T09:28:12.640Z,30.83
2018-07-02T09:29:12.598Z,31.52
2018-07-02T09:30:12.530Z,30.36
2018-07-02T09:31:12.486Z,30.25
2018-07-02T09:32:12.591Z,30.35
2018-07-02T09:33:12.437Z,30.72
2018-07-02T09:34:12.370Z,31.01
2018-07-02T09:35:12.324Z,31.01
2018-07-02T09:36:12.281Z,30.43
2018-07-02T09:37:12.241Z,31.02
2018-07-02T09:38:12.235Z,30.93
2018-07-02T09:39:12.225Z,31.52
2018-07-02T09:40:12.120Z,31.44
2018-07-02T09:41:12.108Z,30.68
2018-07-02T09:42:12.043Z,31.01
2018-07-02T09:43:11.996Z,29.95
2018-07-02T09:44:11.956Z,29.76
2018-07-02T09:45:11.971Z,28.50
2018-07-02T09:46:11.876Z,26.53
2018-07-02T09:47:11.876Z,26.82
2018-07-02T09:48:11.800Z,27.10
2018-07-02T09:49:11.757Z,27.96
2018-07-02T09:50:11.717Z,28.26
2018-07-02T09:51:11.676Z,29.81
2018-07-02T09:52:11.670Z,29.74
2018-07-02T09:53:11.595Z,29.26
2018-07-02T09:54:11.558Z,28.11
2018-07-02T09:55:11.518Z,27.35
2018-07-02T09:56:11.475Z,27.45
2018-07-02T09:57:11.476Z,26.57
2018-07-02T09:58:11.403Z,26.10
2018-07-02T09:59:11.359Z,26.78
2018-07-02T10:00:11.321Z,26.20
2018-07-02T10:01:11.279Z,26.21
2018-07-02T10:02:11.276Z,25.73
2018-07-02T10:03:11.235Z,25.35
2018-07-02T10:04:11.168Z,24.58
2018-07-02T10:05:11.120Z,24.97
2018-07-02T10:06:11.082Z,24.97
2018-07-02T10:07:11.042Z,24.40
2018-07-02T10:08:11.055Z,24.11
2018-07-02T10:09:10.968Z,24.01
2018-07-02T10:10:10.980Z,24.41
2018-07-02T10:11:10.887Z,24.60
2018-07-02T10:12:10.856Z,24.98
2018-07-02T10:13:10.842Z,23.13
2018-07-02T10:14:10.771Z,23.00
2018-07-02T10:15:10.732Z,25.23
2018-07-02T10:16:10.693Z,24.44
2018-07-02T10:17:10.689Z,24.60
2018-07-02T10:18:10.615Z,26.23
2018-07-02T10:19:10.612Z,25.54
2018-07-02T10:20:10.570Z,26.10
2018-07-02T10:21:10.501Z,26.78
2018-07-02T10:22:10.465Z,27.26
2018-07-02T10:23:10.424Z,27.86
2018-07-02T10:24:10.383Z,28.85
2018-07-02T10:25:10.384Z,27.50
2018-07-02T10:26:10.307Z,27.04
2018-07-02T10:27:10.303Z,25.12
2018-07-02T10:28:10.229Z,25.01
2018-07-02T10:29:10.293Z,24.98
2018-07-02T10:30:10.154Z,24.78
2018-07-02T10:31:10.145Z,25.54
2018-07-02T10:32:10.117Z,25.54
2018-07-02T10:33:10.065Z,25.73
2018-07-02T10:34:09.996Z,26.52
2018-07-02T10:35:09.956Z,26.25
2018-07-02T10:36:09.918Z,26.54
2018-07-02T10:37:09.878Z,26.38
2018-07-02T10:38:09.873Z,27.07
2018-07-02T10:39:09.799Z,26.29
2018-07-02T10:40:09.763Z,25.84
2018-07-02T10:41:09.731Z,25.36
2018-07-02T10:42:09.685Z,24.89
2018-07-02T10:43:09.687Z,23.93
2018-07-02T10:44:09.608Z,23.25
2018-07-02T10:45:09.570Z,22.37
2018-07-02T10:46:09.532Z,23.15
2018-07-02T10:47:09.490Z,23.73
2018-07-02T10:48:09.486Z,23.05
2018-07-02T10:49:09.418Z,23.16
2018-07-02T10:50:09.378Z,22.87
2018-07-02T10:51:09.339Z,22.69
2018-07-02T10:52:09.302Z,22.30
2018-07-02T10:53:09.336Z,21.51
2018-07-02T10:54:09.226Z,22.30
2018-07-02T10:55:09.187Z,21.43
2018-07-02T10:56:09.150Z,21.62
2018-07-02T10:57:09.110Z,20.14
2018-07-02T10:58:09.115Z,21.59
2018-07-02T10:59:09.036Z,22.09
2018-07-02T11:00:08.995Z,21.30
2018-07-02T11:01:08.962Z,21.67
2018-07-02T11:02:08.926Z,22.06
2018-07-02T11:03:08.916Z,21.77
2018-07-02T11:04:08.848Z,23.72
2018-07-02T11:05:08.810Z,23.83
2018-07-02T11:06:08.772Z,23.25
2018-07-02T11:07:08.734Z,22.59
2018-07-02T11:08:08.726Z,22.30
2018-07-02T11:09:08.657Z,22.69
2018-07-02T11:10:08.619Z,22.69
2018-07-02T11:11:08.594Z,22.22
2018-07-02T11:12:08.552Z,22.02
2018-07-02T11:13:08.540Z,21.84
2018-07-02T11:14:08.471Z,21.84
2018-07-02T11:15:08.431Z,21.66
2018-07-02T11:16:08.437Z,21.56
2018-07-02T11:17:08.402Z,21.66
2018-07-02T11:18:08.320Z,20.97
2018-07-02T11:19:08.284Z,20.77
2018-07-02T11:20:08.248Z,21.56
2018-07-02T11:21:08.250Z,21.36
2018-07-02T11:22:08.175Z,21.26
2018-07-02T11:23:08.136Z,21.56
2018-07-02T11:24:08.109Z,20.48
2018-07-02T11:25:08.082Z,20.77
2018-07-02T11:26:08.065Z,21.84
2018-07-02T11:27:07.987Z,21.35
2018-07-02T11:28:07.952Z,20.86
2018-07-02T11:29:07.913Z,19.99
2018-07-02T11:30:07.876Z,19.59
2018-07-02T11:31:07.886Z,21.82
2018-07-02T11:32:07.808Z,20.84
2018-07-02T11:33:07.767Z,21.60
2018-07-02T11:34:07.731Z,22.59
2018-07-02T11:35:07.693Z,22.09
2018-07-02T11:36:07.687Z,22.08
2018-07-02T11:37:07.620Z,22.26
2018-07-02T11:38:07.582Z,22.26
2018-07-02T11:39:07.553Z,22.25
2018-07-02T11:40:07.511Z,23.24
2018-07-02T11:41:07.503Z,22.47
2018-07-02T11:42:07.437Z,22.17
2018-07-02T11:43:07.396Z,21.59
2018-07-02T11:44:07.381Z,22.27
2018-07-02T11:45:07.368Z,23.65
2018-07-02T11:46:07.286Z,23.35
2018-07-02T11:47:07.251Z,23.36
2018-07-02T11:48:07.213Z,22.41
2018-07-02T11:49:07.179Z,23.18
2018-07-02T11:50:07.172Z,22.02
2018-07-02T11:51:07.143Z,21.92
2018-07-02T11:52:07.065Z,21.94
2018-07-02T11:53:07.028Z,22.52
2018-07-02T11:54:06.995Z,21.95
2018-07-02T11:55:06.961Z,22.34
2018-07-02T11:56:06.968Z,21.86
2018-07-02T11:57:06.879Z,21.86
2018-07-02T11:58:06.845Z,21.97
2018-07-02T11:59:06.808Z,21.39
2018-07-02T12:00:06.772Z,21.29
2018-07-02T12:01:06.766Z,20.90
2018-07-02T12:02:06.731Z,20.90
2018-07-02T12:03:06.662Z,20.61
2018-07-02T12:04:06.632Z,19.63
2018-07-02T12:05:06.590Z,20.50
2018-07-02T12:06:06.551Z,21.57
2018-07-02T12:07:06.550Z,21.18
2018-07-02T12:08:06.481Z,20.98
2018-07-02T12:09:06.478Z,20.90
2018-07-02T12:10:06.445Z,21.19
2018-07-02T12:11:06.373Z,20.90
2018-07-02T12:12:06.334Z,20.32
2018-07-02T12:13:06.301Z,19.84
2018-07-02T12:14:06.259Z,19.55
2018-07-02T12:15:06.256Z,20.14
2018-07-02T12:16:06.227Z,19.94
2018-07-02T12:17:06.155Z,18.63
2018-07-02T12:18:06.152Z,18.82
2018-07-02T12:19:06.081Z,20.07
2018-07-02T12:20:06.045Z,19.47
2018-07-02T12:21:06.041Z,20.53
2018-07-02T12:22:05.970Z,20.92
2018-07-02T12:23:05.936Z,20.62
2018-07-02T12:24:05.908Z,21.19
2018-07-02T12:25:05.864Z,21.58
2018-07-02T12:26:05.889Z,21.58
2018-07-02T12:27:05.790Z,21.78
2018-07-02T12:28:05.755Z,22.17
2018-07-02T12:29:05.719Z,21.89
2018-07-02T12:30:05.716Z,22.30
2018-07-02T12:31:05.643Z,22.31
2018-07-02T12:32:05.615Z,22.02
2018-07-02T12:33:05.602Z,21.36
2018-07-02T12:34:05.539Z,21.36
2018-07-02T12:35:05.497Z,20.20
2018-07-02T12:36:05.462Z,19.21
2018-07-02T12:37:05.424Z,20.67
2018-07-02T12:38:05.418Z,20.58
2018-07-02T12:39:05.353Z,20.97
2018-07-02T12:40:05.315Z,20.59
2018-07-02T12:41:05.328Z,20.90
2018-07-02T12:42:05.246Z,20.51
2018-07-02T12:43:05.268Z,20.03
2018-07-02T12:44:05.172Z,19.64
2018-07-02T12:45:05.168Z,19.73
2018-07-02T12:46:05.096Z,19.74
2018-07-02T12:47:05.066Z,18.95
2018-07-02T12:48:05.024Z,18.85
2018-07-02T12:49:05.021Z,19.24
2018-07-02T12:50:04.958Z,19.53
2018-07-02T12:51:04.917Z,20.31
2018-07-02T12:52:04.878Z,20.61